createdAt,value
2023-03-21T00:00:51.892Z,99.90
2023-03-21T00:03:21.907Z,99.90
2023-03-21T00:05:53.519Z,99.90
2023-03-21T00:08:22.941Z,99.90
2023-03-21T00:10:57.561Z,99.90
2023-03-21T00:13:28.810Z,99.90
2023-03-21T00:16:06.261Z,99.90
2023-03-21T00:18:42.506Z,99.90
2023-03-21T00:21:40.988Z,99.90
2023-03-21T00:24:03.582Z,99.90
2023-03-21T00:26:31.744Z,99.90
2023-03-21T00:29:01.678Z,99.90
2023-03-21T00:31:29.804Z,99.90
2023-03-21T00:34:02.709Z,99.90
2023-03-21T00:36:32.874Z,99.90
2023-03-21T00:39:01.854Z,99.90
2023-03-21T00:41:45.322Z,99.90
2023-03-21T00:44:15.845Z,99.90
2023-03-21T00:47:00.752Z,99.90
2023-03-21T00:49:38.200Z,99.90
2023-03-21T00:52:18.298Z,99.90
2023-03-21T00:54:48.407Z,99.90
2023-03-21T00:57:16.887Z,99.90
2023-03-21T00:59:44.984Z,99.90
2023-03-21T01:02:15.217Z,99.90
2023-03-21T01:04:44.893Z,99.90
2023-03-21T01:07:13.017Z,99.90
2023-03-21T01:09:41.102Z,99.90
2023-03-21T01:12:10.089Z,99.90
2023-03-21T01:14:38.641Z,99.90
2023-03-21T01:17:06.830Z,99.90
2023-03-21T01:19:48.741Z,99.90
2023-03-21T01:22:21.259Z,99.90
2023-03-21T01:24:56.915Z,99.90
2023-03-21T01:27:28.664Z,99.90
2023-03-21T01:29:56.884Z,99.90
2023-03-21T01:32:25.312Z,99.90
2023-03-21T01:34:53.564Z,99.90
2023-03-21T01:37:23.121Z,99.90
2023-03-21T01:39:51.440Z,99.90
2023-03-21T01:42:19.987Z,99.90
2023-03-21T01:44:56.821Z,99.90
2023-03-21T01:47:25.100Z,99.90
2023-03-21T01:49:56.573Z,99.90
2023-03-21T01:52:36.954Z,99.90
2023-03-21T01:55:07.893Z,99.90
2023-03-21T01:57:49.507Z,99.90
2023-03-21T02:00:29.642Z,99.90
2023-03-21T02:03:09.740Z,99.90
2023-03-21T02:05:45.459Z,99.90
2023-03-21T02:08:15.032Z,99.90
2023-03-21T02:10:45.297Z,99.90
2023-03-21T02:13:13.487Z,99.90
2023-03-21T02:15:48.176Z,99.90
2023-03-21T02:18:22.598Z,99.90
2023-03-21T02:21:12.221Z,99.90
2023-03-21T02:24:22.033Z,99.90
2023-03-21T02:27:04.143Z,99.90
2023-03-21T02:29:55.847Z,99.90
2023-03-21T02:32:37.890Z,99.90
2023-03-21T02:35:30.605Z,99.90
2023-03-21T02:38:05.120Z,99.90
2023-03-21T02:40:39.866Z,99.90
2023-03-21T02:43:23.039Z,99.90
2023-03-21T02:45:59.281Z,99.90
2023-03-21T02:48:44.453Z,99.90
2023-03-21T02:51:21.140Z,99.90
2023-03-21T02:54:21.383Z,99.90
2023-03-21T02:56:43.072Z,99.90
2023-03-21T02:59:11.886Z,99.90
2023-03-21T03:01:40.010Z,99.90
2023-03-21T03:04:19.590Z,99.90
2023-03-21T03:07:08.680Z,99.90
2023-03-21T03:09:49.101Z,99.90
2023-03-21T03:12:26.670Z,99.90
2023-03-21T03:15:05.222Z,99.90
2023-03-21T03:17:45.085Z,99.90
2023-03-21T03:20:27.201Z,99.90
2023-03-21T03:23:01.561Z,99.90
2023-03-21T03:25:42.814Z,99.90
2023-03-21T03:28:14.432Z,99.90
2023-03-21T03:30:57.160Z,99.90
2023-03-21T03:33:34.804Z,99.90
2023-03-21T03:36:06.816Z,99.90
2023-03-21T03:38:37.235Z,99.90
2023-03-21T03:41:12.272Z,99.90
2023-03-21T03:43:45.156Z,99.90
2023-03-21T03:46:19.035Z,99.90
2023-03-21T03:48:53.279Z,99.90
2023-03-21T03:51:26.522Z,99.90
2023-03-21T03:53:58.875Z,99.90
2023-03-21T03:56:29.973Z,99.90
2023-03-21T03:58:58.722Z,99.90
2023-03-21T04:01:28.213Z,99.90
2023-03-21T04:04:10.401Z,99.90
2023-03-21T04:06:53.051Z,99.90
2023-03-21T04:09:31.350Z,99.90
2023-03-21T04:12:07.017Z,99.90
2023-03-21T04:14:43.953Z,99.90
2023-03-21T04:17:13.513Z,99.90
2023-03-21T04:19:41.669Z,99.90
2023-03-21T04:22:09.959Z,99.90
2023-03-21T04:24:38.678Z,99.90
2023-03-21T04:27:08.241Z,99.90
2023-03-21T04:29:36.375Z,99.90
2023-03-21T04:32:04.500Z,99.90
2023-03-21T04:34:32.930Z,99.90
2023-03-21T04:37:00.949Z,99.90
2023-03-21T04:39:28.926Z,99.90
2023-03-21T04:41:57.395Z,99.90
2023-03-21T04:44:27.144Z,99.90
2023-03-21T04:46:55.213Z,99.90
2023-03-21T04:49:23.250Z,99.90
2023-03-21T04:51:51.440Z,99.90
2023-03-21T04:54:21.122Z,99.90
2023-03-21T04:56:49.261Z,99.90
2023-03-21T04:59:17.963Z,99.90
2023-03-21T05:01:47.473Z,99.90
2023-03-21T05:04:15.800Z,99.90
2023-03-21T05:06:44.373Z,99.90
2023-03-21T05:09:13.041Z,99.90
2023-03-21T05:11:41.910Z,99.90
2023-03-21T05:14:12.396Z,99.90
2023-03-21T05:16:48.668Z,99.90
2023-03-21T05:19:19.125Z,99.90
2023-03-21T05:21:47.561Z,99.90
2023-03-21T05:24:17.036Z,99.90
2023-03-21T05:26:50.477Z,99.90
2023-03-21T05:29:20.361Z,99.90
2023-03-21T05:31:48.896Z,99.90
2023-03-21T05:34:18.641Z,99.90
2023-03-21T05:36:47.013Z,99.90
2023-03-21T05:39:15.004Z,99.90
2023-03-21T05:41:43.093Z,99.90
2023-03-21T05:44:11.181Z,99.90
2023-03-21T05:46:39.326Z,99.90
2023-03-21T05:49:07.570Z,99.90
2023-03-21T05:51:37.339Z,99.90
2023-03-21T05:54:06.480Z,99.90
2023-03-21T05:56:34.666Z,99.90
2023-03-21T05:59:02.714Z,99.90
2023-03-21T06:01:31.048Z,99.90
2023-03-21T06:03:59.520Z,99.90
2023-03-21T06:06:29.115Z,99.90
2023-03-21T06:08:59.228Z,99.90
2023-03-21T06:11:30.045Z,99.90
2023-03-21T06:13:58.430Z,99.90
2023-03-21T06:16:26.872Z,99.90
2023-03-21T06:18:55.728Z,99.90
2023-03-21T06:21:26.714Z,99.90
2023-03-21T06:23:55.396Z,99.90
2023-03-21T06:26:28.267Z,99.90
2023-03-21T06:28:57.680Z,99.90
2023-03-21T06:31:37.179Z,99.90
2023-03-21T06:34:06.947Z,99.90
2023-03-21T06:36:36.198Z,99.90
2023-03-21T06:39:05.252Z,99.90
2023-03-21T06:41:35.802Z,99.90
2023-03-21T06:44:04.771Z,99.90
2023-03-21T06:46:33.498Z,99.90
2023-03-21T06:49:02.197Z,99.90
2023-03-21T06:51:30.975Z,99.90
2023-03-21T06:53:59.552Z,99.90
2023-03-21T06:56:28.193Z,99.90
2023-03-21T06:58:57.871Z,99.90
2023-03-21T07:01:27.686Z,99.90
2023-03-21T07:03:57.452Z,99.90
2023-03-21T07:06:26.497Z,99.90
2023-03-21T07:08:55.448Z,99.90
2023-03-21T07:11:24.517Z,99.90
2023-03-21T07:13:53.487Z,99.90
2023-03-21T07:16:23.195Z,99.90
2023-03-21T07:18:51.187Z,99.90
2023-03-21T07:21:19.744Z,99.90
2023-03-21T07:23:50.269Z,99.90
2023-03-21T07:26:18.876Z,99.90
2023-03-21T07:28:47.086Z,98.60
2023-03-21T07:31:17.335Z,98.20
2023-03-21T07:33:47.008Z,98.50
2023-03-21T07:36:20.026Z,96.70
2023-03-21T07:38:48.108Z,93.30
2023-03-21T07:43:44.271Z,75.70
2023-03-21T07:46:12.351Z,68.70
2023-03-21T07:48:40.366Z,60.40
2023-03-21T07:51:10.013Z,56.70
2023-03-21T07:53:38.248Z,54.30
2023-03-21T07:56:07.643Z,52.80
2023-03-21T07:58:35.726Z,50.90
2023-03-21T08:01:03.710Z,49.40
2023-03-21T08:03:33.379Z,48.50
2023-03-21T08:06:02.022Z,46.00
2023-03-21T08:08:32.032Z,43.60
2023-03-21T08:11:00.365Z,42.40
2023-03-21T08:13:29.163Z,43.50
2023-03-21T08:15:57.272Z,42.30
2023-03-21T08:18:25.522Z,40.60
2023-03-21T08:20:54.357Z,40.00
2023-03-21T08:23:23.789Z,39.60
2023-03-21T08:25:54.893Z,38.40
2023-03-21T08:28:23.758Z,38.40
2023-03-21T08:30:52.123Z,38.70
2023-03-21T08:33:20.527Z,39.40
2023-03-21T08:35:49.059Z,40.50
2023-03-21T08:38:17.338Z,40.50
2023-03-21T08:40:51.977Z,40.00
2023-03-21T08:43:21.416Z,39.90
2023-03-21T08:45:49.953Z,40.00
2023-03-21T08:48:18.074Z,39.70
2023-03-21T08:50:46.840Z,39.90
2023-03-21T08:53:15.334Z,39.80
2023-03-21T08:55:44.506Z,37.50
2023-03-21T08:58:12.784Z,38.20
2023-03-21T09:00:42.422Z,38.10
2023-03-21T09:03:11.765Z,36.90
2023-03-21T09:05:40.234Z,36.50
2023-03-21T09:08:08.825Z,35.80
2023-03-21T09:10:37.233Z,34.70
2023-03-21T09:13:06.076Z,34.70
2023-03-21T09:15:35.563Z,34.90
2023-03-21T09:18:13.848Z,35.20
2023-03-21T09:20:43.214Z,35.10
2023-03-21T09:23:12.245Z,34.60
2023-03-21T09:25:40.969Z,34.00
2023-03-21T09:28:09.806Z,33.90
2023-03-21T09:30:38.768Z,33.80
2023-03-21T09:33:09.004Z,34.10
2023-03-21T09:35:37.707Z,34.70
2023-03-21T09:38:06.326Z,34.30
2023-03-21T09:40:52.827Z,34.10
2023-03-21T09:43:34.299Z,34.20
2023-03-21T09:46:11.593Z,33.70
2023-03-21T09:48:57.750Z,34.10
2023-03-21T09:51:30.245Z,34.40
2023-03-21T09:54:02.740Z,34.90
2023-03-21T09:56:31.350Z,35.30
2023-03-21T09:59:01.514Z,35.90
2023-03-21T10:01:32.966Z,35.50
2023-03-21T10:04:05.956Z,36.40
2023-03-21T10:06:40.219Z,35.80
2023-03-21T10:09:14.537Z,33.50
2023-03-21T10:11:46.312Z,33.10
2023-03-21T10:14:20.277Z,32.70
2023-03-21T10:16:51.074Z,33.60
2023-03-21T10:19:21.181Z,33.40
2023-03-21T10:22:02.636Z,33.40
2023-03-21T10:24:35.014Z,34.30
2023-03-21T10:27:04.371Z,34.20
2023-03-21T10:29:43.340Z,34.20
2023-03-21T10:32:13.922Z,34.40
2023-03-21T10:34:46.963Z,34.40
2023-03-21T10:37:16.868Z,34.50
2023-03-21T10:39:48.305Z,34.00
2023-03-21T10:42:23.500Z,34.80
2023-03-21T10:44:53.690Z,34.40
2023-03-21T10:47:23.841Z,34.20
2023-03-21T10:50:10.515Z,35.20
2023-03-21T10:52:43.368Z,35.00
2023-03-21T10:55:21.380Z,35.50
2023-03-21T10:57:50.151Z,35.50
2023-03-21T11:00:22.525Z,35.00
2023-03-21T11:02:52.310Z,35.10
2023-03-21T11:05:25.227Z,35.40
2023-03-21T11:08:01.535Z,36.30
2023-03-21T11:10:32.312Z,36.50
2023-03-21T11:13:06.664Z,36.90
2023-03-21T11:15:42.986Z,36.90
2023-03-21T11:18:20.603Z,37.10
2023-03-21T11:20:55.788Z,37.30
2023-03-21T11:23:29.675Z,37.40
2023-03-21T11:26:00.535Z,37.40
2023-03-21T11:28:37.155Z,38.30
2023-03-21T11:31:06.937Z,38.80
2023-03-21T11:33:38.473Z,39.10
2023-03-21T11:36:25.560Z,39.90
2023-03-21T11:38:55.319Z,40.00
2023-03-21T11:41:25.170Z,40.80
2023-03-21T11:43:54.297Z,41.80
2023-03-21T11:46:26.269Z,41.20
2023-03-21T11:48:56.210Z,41.10
2023-03-21T11:51:31.754Z,41.70
2023-03-21T11:54:08.347Z,43.20
2023-03-21T11:56:42.739Z,43.40
2023-03-21T11:59:27.880Z,43.10
2023-03-21T12:02:06.859Z,43.90
2023-03-21T12:04:41.592Z,43.70
2023-03-21T12:07:42.015Z,44.20
2023-03-21T12:10:31.677Z,44.80
2023-03-21T12:13:09.701Z,45.50
2023-03-21T12:15:44.242Z,45.80
2023-03-21T12:18:34.018Z,46.80
2023-03-21T12:21:08.101Z,47.90
2023-03-21T12:23:48.684Z,47.90
2023-03-21T12:26:24.360Z,48.90
2023-03-21T12:29:10.677Z,49.80
2023-03-21T12:31:50.787Z,49.50
2023-03-21T12:34:33.259Z,49.50
2023-03-21T12:37:11.124Z,50.00
2023-03-21T12:39:41.354Z,49.80
2023-03-21T12:42:40.481Z,50.20
2023-03-21T12:45:16.766Z,50.90
2023-03-21T12:47:50.528Z,50.50
2023-03-21T12:50:24.276Z,50.80
2023-03-21T12:52:57.020Z,51.50
2023-03-21T12:55:32.747Z,52.00
2023-03-21T12:58:05.850Z,52.40
2023-03-21T13:00:44.189Z,52.70
2023-03-21T13:03:30.272Z,53.10
2023-03-21T13:08:37.025Z,53.90
2023-03-21T13:11:08.693Z,54.60
2023-03-21T13:13:40.624Z,54.80
2023-03-21T13:16:14.070Z,54.80
2023-03-21T13:18:59.259Z,54.70
2023-03-21T13:21:44.383Z,55.70
2023-03-21T13:24:27.913Z,55.80
2023-03-21T13:27:06.535Z,56.50
2023-03-21T13:29:44.179Z,56.70
2023-03-21T13:32:20.018Z,56.80
2023-03-21T13:34:56.214Z,56.20
2023-03-21T13:37:26.668Z,55.50
2023-03-21T13:39:54.786Z,55.90
2023-03-21T13:42:31.783Z,56.80
2023-03-21T13:45:02.297Z,56.30
2023-03-21T13:47:40.110Z,56.00
2023-03-21T13:50:27.679Z,55.70
2023-03-21T13:53:20.591Z,56.10
2023-03-21T13:56:08.352Z,55.50
2023-03-21T13:58:40.005Z,55.30
2023-03-21T14:01:31.986Z,55.30
2023-03-21T14:04:02.192Z,55.00
2023-03-21T14:06:39.096Z,55.60
2023-03-21T14:09:07.935Z,55.40
2023-03-21T14:11:41.965Z,54.60
2023-03-21T14:14:14.153Z,54.30
2023-03-21T14:16:43.237Z,54.50
2023-03-21T14:19:13.695Z,54.40
2023-03-21T14:21:50.402Z,54.70
2023-03-21T14:24:19.427Z,54.80
2023-03-21T14:26:49.871Z,54.70
2023-03-21T14:29:26.571Z,55.00
2023-03-21T14:31:56.218Z,55.50
2023-03-21T14:34:26.154Z,55.70
2023-03-21T14:36:58.827Z,55.70
2023-03-21T14:39:29.803Z,55.70
2023-03-21T14:42:04.855Z,55.40
2023-03-21T14:44:53.819Z,55.60
2023-03-21T14:47:25.573Z,55.50
2023-03-21T14:49:57.586Z,56.10
2023-03-21T14:52:28.108Z,56.00
2023-03-21T14:54:58.210Z,55.90
2023-03-21T14:57:30.079Z,56.00
2023-03-21T15:00:06.350Z,56.40
2023-03-21T15:02:40.394Z,57.10
2023-03-21T15:05:15.534Z,56.40
2023-03-21T15:07:44.163Z,56.60
2023-03-21T15:10:18.227Z,56.60
2023-03-21T15:12:55.042Z,56.50
2023-03-21T15:15:27.578Z,56.90
2023-03-21T15:17:59.583Z,57.40
2023-03-21T15:20:33.350Z,57.60
2023-03-21T15:23:04.792Z,57.90
2023-03-21T15:25:37.270Z,57.30
2023-03-21T15:28:06.700Z,57.70
2023-03-21T15:30:36.454Z,58.00
2023-03-21T15:33:10.544Z,58.40
2023-03-21T15:35:46.178Z,59.10
2023-03-21T15:38:24.485Z,58.80
2023-03-21T15:41:14.481Z,58.00
2023-03-21T15:43:43.282Z,58.10
2023-03-21T15:46:18.103Z,58.10
2023-03-21T15:48:47.031Z,58.80
2023-03-21T15:51:23.202Z,58.90
2023-03-21T15:53:54.833Z,58.40
2023-03-21T15:56:24.054Z,58.70
2023-03-21T15:58:54.857Z,58.90
2023-03-21T16:01:27.378Z,58.50
2023-03-21T16:04:10.159Z,58.70
2023-03-21T16:06:40.185Z,58.70
2023-03-21T16:09:14.275Z,58.90
2023-03-21T16:11:43.918Z,59.60
2023-03-21T16:14:13.910Z,60.70
2023-03-21T16:16:43.640Z,60.40
2023-03-21T16:19:11.808Z,59.90
2023-03-21T16:21:40.073Z,59.80
2023-03-21T16:24:12.595Z,59.60
2023-03-21T16:26:45.771Z,59.90
2023-03-21T16:29:18.427Z,60.30
2023-03-21T16:31:50.963Z,61.00
2023-03-21T16:34:20.689Z,62.10
2023-03-21T16:36:50.802Z,62.50
2023-03-21T16:39:22.668Z,63.00
2023-03-21T16:41:51.405Z,63.50
2023-03-21T16:44:20.081Z,63.60
2023-03-21T16:46:49.562Z,63.90
2023-03-21T16:49:21.373Z,65.10
2023-03-21T16:51:49.396Z,64.70
2023-03-21T16:54:17.423Z,64.70
2023-03-21T16:56:50.142Z,64.70
2023-03-21T16:59:18.270Z,65.00
2023-03-21T17:01:48.168Z,65.10
2023-03-21T17:04:19.054Z,65.80
2023-03-21T17:06:52.277Z,66.60
2023-03-21T17:09:22.593Z,67.20
2023-03-21T17:11:53.551Z,67.80
2023-03-21T17:14:22.225Z,69.30
2023-03-21T17:16:50.381Z,69.90
2023-03-21T17:19:23.838Z,70.90
2023-03-21T17:21:51.902Z,72.00
2023-03-21T17:24:23.196Z,73.50
2023-03-21T17:26:51.262Z,74.10
2023-03-21T17:29:19.419Z,75.30
2023-03-21T17:31:50.262Z,76.50
2023-03-21T17:34:19.991Z,79.00
2023-03-21T17:36:49.931Z,80.40
2023-03-21T17:39:21.459Z,84.20
2023-03-21T17:41:50.077Z,86.70
2023-03-21T17:44:18.105Z,88.20
2023-03-21T17:46:46.623Z,90.50
2023-03-21T17:49:16.500Z,91.00
2023-03-21T17:51:46.982Z,91.40
2023-03-21T17:54:15.228Z,92.50
2023-03-21T17:56:43.357Z,92.90
2023-03-21T17:59:15.106Z,94.50
2023-03-21T18:01:43.283Z,94.40
2023-03-21T18:04:11.318Z,95.00
2023-03-21T18:06:39.877Z,95.70
2023-03-21T18:09:11.941Z,96.10
2023-03-21T18:11:41.591Z,97.40
2023-03-21T18:14:19.457Z,98.10
2023-03-21T18:16:51.051Z,98.30
2023-03-21T18:19:19.262Z,98.70
2023-03-21T18:21:47.223Z,99.10
2023-03-21T18:24:16.871Z,99.40
2023-03-21T18:26:46.128Z,99.90
2023-03-21T18:32:07.694Z,99.90
2023-03-21T18:34:37.350Z,99.90
2023-03-21T18:37:07.608Z,99.90
2023-03-21T18:39:38.186Z,99.90
2023-03-21T18:42:06.969Z,99.90
2023-03-21T18:44:45.533Z,99.90
2023-03-21T18:47:14.304Z,99.90
2023-03-21T18:50:13.313Z,99.90
2023-03-21T18:52:30.471Z,99.90
2023-03-21T18:54:59.855Z,99.90
2023-03-21T18:57:36.468Z,99.90
2023-03-21T19:00:11.124Z,99.90
2023-03-21T19:02:45.621Z,99.90
2023-03-21T19:05:15.682Z,99.90
2023-03-21T19:07:43.967Z,99.90
2023-03-21T19:10:19.378Z,99.90
2023-03-21T19:12:48.832Z,99.90
2023-03-21T19:15:19.670Z,99.90
2023-03-21T19:20:37.912Z,99.90
2023-03-21T19:23:08.238Z,99.90
2023-03-21T19:25:39.065Z,99.90
2023-03-21T19:28:07.263Z,99.90
2023-03-21T19:30:35.478Z,99.90
2023-03-21T19:33:03.442Z,99.90
2023-03-21T19:35:32.026Z,99.90
2023-03-21T19:38:00.014Z,99.90
2023-03-21T19:40:28.188Z,99.90
2023-03-21T19:42:58.118Z,99.90
2023-03-21T19:45:26.548Z,99.90
2023-03-21T19:47:54.678Z,99.90
2023-03-21T19:50:49.141Z,99.90
2023-03-21T19:53:17.476Z,99.90
2023-03-21T19:55:45.758Z,99.90
2023-03-21T19:58:16.407Z,99.90
2023-03-21T20:00:44.783Z,99.90
2023-03-21T20:03:13.875Z,99.90
2023-03-21T20:05:42.107Z,99.90
2023-03-21T20:08:11.085Z,99.90
2023-03-21T20:10:39.486Z,99.90
2023-03-21T20:13:07.781Z,99.90
2023-03-21T20:15:46.006Z,99.90
2023-03-21T20:18:16.222Z,99.90
2023-03-21T20:20:44.229Z,99.90
2023-03-21T20:23:12.195Z,99.90
2023-03-21T20:25:41.024Z,99.90
2023-03-21T20:28:24.274Z,99.90
2023-03-21T20:30:58.282Z,99.90
2023-03-21T20:33:26.517Z,99.90
2023-03-21T20:38:48.496Z,99.90
2023-03-21T20:41:17.024Z,99.90
2023-03-21T20:44:28.513Z,99.90
2023-03-21T20:46:36.452Z,99.90
2023-03-21T20:49:07.345Z,99.90
2023-03-21T20:54:24.501Z,99.90
2023-03-21T20:56:52.518Z,99.90
2023-03-21T20:59:26.411Z,99.90
2023-03-21T21:01:58.212Z,99.90
2023-03-21T21:04:46.879Z,99.90
2023-03-21T21:07:18.067Z,99.90
2023-03-21T21:09:47.072Z,99.90
2023-03-21T21:12:17.297Z,99.90
2023-03-21T21:14:45.655Z,99.90
2023-03-21T21:20:12.212Z,99.90
2023-03-21T21:22:42.890Z,99.90
2023-03-21T21:25:15.615Z,99.90
2023-03-21T21:27:43.930Z,99.90
2023-03-21T21:30:13.509Z,99.90
2023-03-21T21:32:42.756Z,99.90
2023-03-21T21:35:11.027Z,99.90
2023-03-21T21:37:41.856Z,99.90
2023-03-21T21:40:12.966Z,99.90
2023-03-21T21:42:42.773Z,99.90
2023-03-21T21:45:11.944Z,99.90
2023-03-21T21:47:40.592Z,99.90
2023-03-21T21:50:11.801Z,99.90
2023-03-21T21:52:43.475Z,99.90
2023-03-21T21:55:13.124Z,99.90
2023-03-21T21:57:41.161Z,99.90
2023-03-21T22:00:13.094Z,99.90
2023-03-21T22:02:42.111Z,99.90
2023-03-21T22:05:11.757Z,99.90
2023-03-21T22:07:39.886Z,99.90
2023-03-21T22:10:08.702Z,99.90
2023-03-21T22:12:36.650Z,99.90
2023-03-21T22:15:06.851Z,99.90
2023-03-21T22:17:34.955Z,99.90
2023-03-21T22:20:06.812Z,99.90
2023-03-21T22:22:37.081Z,99.90
2023-03-21T22:25:06.258Z,99.90
2023-03-21T22:27:34.867Z,99.90
2023-03-21T22:30:05.559Z,99.90
2023-03-21T22:32:34.129Z,99.90
2023-03-21T22:35:02.821Z,99.90
2023-03-21T22:37:31.040Z,99.90
2023-03-21T22:40:00.408Z,99.90
2023-03-21T22:42:28.715Z,99.90
2023-03-21T22:44:56.650Z,99.90
2023-03-21T22:47:24.612Z,99.90
2023-03-21T22:49:52.555Z,99.90
2023-03-21T22:52:20.485Z,99.90
2023-03-21T22:54:49.150Z,99.90
2023-03-21T22:57:20.139Z,99.90
2023-03-21T22:59:48.336Z,99.90
2023-03-21T23:02:16.690Z,99.90
2023-03-21T23:04:44.908Z,99.90
2023-03-21T23:07:12.929Z,99.90
2023-03-21T23:09:41.115Z,99.90
2023-03-21T23:12:09.122Z,99.90
2023-03-21T23:14:38.423Z,99.90
2023-03-21T23:17:06.388Z,99.90
2023-03-21T23:19:34.315Z,99.90
2023-03-21T23:22:02.253Z,99.90
2023-03-21T23:24:30.262Z,99.90
2023-03-21T23:26:58.201Z,99.90
2023-03-21T23:29:26.171Z,99.90
2023-03-21T23:31:55.508Z,99.90
2023-03-21T23:34:23.529Z,99.90
2023-03-21T23:36:51.579Z,99.90
2023-03-21T23:39:20.154Z,99.90
2023-03-21T23:41:48.080Z,99.90
2023-03-21T23:44:16.346Z,99.90
2023-03-21T23:46:44.267Z,99.90
2023-03-21T23:49:15.054Z,99.90
2023-03-21T23:51:43.113Z,99.90
2023-03-21T23:54:11.182Z,99.90
2023-03-21T23:56:39.455Z,99.90
2023-03-21T23:59:07.401Z,99.90
